Mary Esther, Florida
Current Conditions -  °F | °C
As of 5:56 AM on Saturday 25 Oct 2014 (Local Time) from KQBL Reporting Station
Broken Clouds Broken Clouds  
Wind Chill: 53°   Ceiling: 24000
Heat Index: 53°   Visibility: 10mi
Dew Point: 44°   Wind: 5mph
Humidity: 73%   Direction: 340°NNW
Pressure: 30.07"   Gusts: NA
Location:  30.41°N, 86.66°W
Report Text: KQBL 251056Z AUTO 34004KT 10SM BKN240 12/07 A3007 RMK AO2 SLP189 T01150069
Loading
Personal Weather Stations






























Interactive Weather Map
Tropical Storm Tracking
New forecast layout! Learn more

10-Day Weather Forecast

Advertisements
Track Severe Weather on mobile